Time;durP1;ratioP1;P1;durP2;ratioP2;P2;SDS_P1;SDS_P2;PMS_P1;PMS_P2;Temp;Humidity;BMP_temperature;BMP_pressure;BME280_temperature;BME280_humidity;BME280_pressure;Samples;Min_cycle;Max_cycle;Signal;HPM_P1;HPM_P2
2022/02/20 00:01:37;;;;;;;6.65;1.00;;;2.40;99.90;;;;;;5002965;28;20129;-66
2022/02/20 00:04:04;;;;;;;12.15;1.65;;;2.50;99.90;;;;;;5004649;28;20133;-70
2022/02/20 00:06:32;;;;;;;7.93;1.73;;;2.50;99.90;;;;;;4990507;28;21456;-64
2022/02/20 00:08:59;;;;;;;6.47;1.95;;;2.50;99.90;;;;;;5000532;28;20104;-65
2022/02/20 00:11:26;;;;;;;8.30;1.73;;;2.50;99.90;;;;;;4999914;28;20447;-69
2022/02/20 00:13:54;;;;;;;5.85;1.10;;;2.50;99.90;;;;;;5004565;28;20046;-65
2022/02/20 00:16:22;;;;;;;9.05;1.60;;;2.50;99.90;;;;;;5003216;28;20136;-64
2022/02/20 00:18:49;;;;;;;13.23;2.20;;;2.50;99.90;;;;;;5004143;28;20057;-69
2022/02/20 00:21:17;;;;;;;4.63;2.03;;;2.60;99.90;;;;;;5002254;28;20054;-63
2022/02/20 00:23:44;;;;;;;5.45;1.35;;;2.60;99.90;;;;;;5002601;28;20133;-65
2022/02/20 00:26:11;;;;;;;5.57;1.20;;;2.60;99.90;;;;;;5003390;28;20053;-67
2022/02/20 00:28:39;;;;;;;9.15;1.95;;;2.60;99.90;;;;;;5002974;28;20045;-66
2022/02/20 00:31:07;;;;;;;11.57;2.15;;;2.60;99.90;;;;;;4995973;28;20060;-66
2022/02/20 00:33:34;;;;;;;9.27;2.15;;;2.60;99.90;;;;;;5002290;28;20049;-70
2022/02/20 00:36:02;;;;;;;6.97;2.25;;;2.60;99.90;;;;;;4995788;28;20042;-72
2022/02/20 00:38:29;;;;;;;5.47;1.67;;;2.60;99.90;;;;;;4989760;28;20729;-71
2022/02/20 00:40:56;;;;;;;7.35;1.70;;;2.60;99.90;;;;;;4982705;28;20523;-68
2022/02/20 00:43:23;;;;;;;4.63;2.22;;;2.50;99.90;;;;;;4984749;28;20142;-65
2022/02/20 00:45:52;;;;;;;7.43;1.80;;;2.40;99.90;;;;;;4984003;28;20064;-65
2022/02/20 00:48:21;;;;;;;8.93;2.30;;;2.30;99.90;;;;;;4987033;28;20108;-66
2022/02/20 00:50:49;;;;;;;11.02;3.70;;;2.30;99.90;;;;;;4981381;28;20046;-64
2022/02/20 00:53:16;;;;;;;10.82;2.15;;;2.20;99.90;;;;;;4981378;28;20038;-64
2022/02/20 00:55:43;;;;;;;9.52;2.17;;;2.20;99.90;;;;;;4983526;28;20054;-63
2022/02/20 00:58:10;;;;;;;5.90;1.40;;;2.10;99.90;;;;;;4983642;28;20120;-71
2022/02/20 01:00:38;;;;;;;9.48;1.55;;;2.10;99.90;;;;;;5025188;28;20049;-65
2022/02/20 01:03:06;;;;;;;4.00;1.98;;;2.10;99.90;;;;;;4986070;28;20116;-69
2022/02/20 01:05:34;;;;;;;8.88;3.05;;;2.10;99.90;;;;;;5004663;28;20129;-68
2022/02/20 01:08:01;;;;;;;8.98;2.92;;;2.10;99.90;;;;;;4983709;28;20138;-64
2022/02/20 01:10:28;;;;;;;9.10;2.42;;;2.10;99.90;;;;;;4994371;28;20376;-64
2022/02/20 01:12:56;;;;;;;11.50;2.00;;;2.10;99.90;;;;;;5003264;28;20053;-65
2022/02/20 01:15:23;;;;;;;11.23;2.17;;;2.10;99.90;;;;;;5001116;28;20088;-66
2022/02/20 01:17:50;;;;;;;9.20;1.60;;;2.20;99.90;;;;;;5013143;28;20072;-65
2022/02/20 01:20:18;;;;;;;9.38;2.33;;;2.20;99.90;;;;;;5002274;28;20077;-69
2022/02/20 01:22:45;;;;;;;11.18;1.88;;;2.20;99.90;;;;;;4999570;28;20050;-65
2022/02/20 01:25:13;;;;;;;8.10;2.38;;;2.10;99.90;;;;;;4997877;28;20152;-67
2022/02/20 01:27:40;;;;;;;11.73;2.20;;;2.10;99.90;;;;;;4998628;28;20046;-67
2022/02/20 01:30:07;;;;;;;8.10;1.80;;;2.10;99.90;;;;;;5034629;28;20120;-69
2022/02/20 01:32:34;;;;;;;8.95;2.05;;;2.10;99.90;;;;;;4999640;28;20516;-67
2022/02/20 01:35:02;;;;;;;4.85;2.13;;;2.10;99.90;;;;;;5004280;28;20476;-67
2022/02/20 01:37:29;;;;;;;11.05;2.60;;;2.20;99.90;;;;;;5029785;28;20062;-64
2022/02/20 01:39:56;;;;;;;9.45;3.28;;;2.20;99.90;;;;;;4987843;28;20145;-63
2022/02/20 01:42:25;;;;;;;12.40;2.55;;;2.20;99.90;;;;;;4994964;28;20123;-64
2022/02/20 01:44:58;;;;;;;7.28;2.23;;;2.20;99.90;;;;;;4763995;28;10000955;-65
2022/02/20 01:47:31;;;;;;;13.13;1.80;;;2.20;99.90;;;;;;1373937;28;10001971;-65
2022/02/20 01:49:58;;;;;;;14.10;2.28;;;2.20;99.90;;;;;;5003271;28;20066;-67
2022/02/20 01:52:26;;;;;;;12.88;1.80;;;2.30;99.90;;;;;;5016139;28;20050;-67
2022/02/20 01:54:58;;;;;;;9.60;1.77;;;2.30;99.90;;;;;;5028924;28;20116;-65
2022/02/20 01:57:30;;;;;;;13.10;2.75;;;2.30;99.90;;;;;;4995637;28;20054;-69
2022/02/20 02:00:30;;;;;;;7.28;1.70;;;2.30;99.90;;;;;;4974243;28;20678;-64
2022/02/20 02:03:15;;;;;;;22.85;3.28;;;2.40;99.90;;;;;;4993701;28;20129;-66
2022/02/20 02:06:08;;;;;;;3.97;1.85;;;2.40;99.90;;;;;;4998303;28;20057;-68
2022/02/20 02:08:36;;;;;;;13.18;3.58;;;2.50;99.90;;;;;;5003912;28;20137;-69
2022/02/20 02:11:11;;;;;;;10.52;2.55;;;2.50;99.90;;;;;;5034502;28;20065;-65
2022/02/20 02:13:58;;;;;;;7.15;1.80;;;2.50;99.90;;;;;;5003424;28;20540;-65
2022/02/20 02:16:44;;;;;;;7.78;1.70;;;2.50;99.90;;;;;;5005987;28;20428;-64
2022/02/20 02:19:30;;;;;;;14.13;3.38;;;2.50;99.90;;;;;;5001429;28;20076;-66
2022/02/20 02:22:20;;;;;;;11.43;2.40;;;2.50;99.90;;;;;;5002210;28;20049;-67
2022/02/20 02:25:08;;;;;;;7.55;2.13;;;2.40;99.90;;;;;;5004901;28;20064;-69
2022/02/20 02:28:07;;;;;;;12.43;1.85;;;2.30;99.90;;;;;;4989090;28;20600;-69
2022/02/20 02:30:35;;;;;;;9.15;3.25;;;2.20;99.90;;;;;;5002394;28;20571;-66
2022/02/20 02:33:04;;;;;;;10.63;2.28;;;2.10;99.90;;;;;;5000577;28;20065;-66
2022/02/20 02:35:31;;;;;;;8.88;2.20;;;2.10;99.90;;;;;;5004029;28;20074;-67
2022/02/20 02:37:58;;;;;;;5.05;1.95;;;2.00;99.90;;;;;;5033936;28;20057;-66
2022/02/20 02:40:26;;;;;;;10.00;1.80;;;2.00;99.90;;;;;;5004643;28;20062;-64
2022/02/20 02:42:54;;;;;;;8.02;2.65;;;2.00;99.90;;;;;;5017517;28;20060;-65
2022/02/20 02:45:26;;;;;;;8.07;1.80;;;2.00;99.90;;;;;;5002426;28;20476;-63
2022/02/20 02:47:53;;;;;;;7.88;2.33;;;2.00;99.90;;;;;;5001555;28;20054;-65
2022/02/20 02:50:25;;;;;;;8.18;1.95;;;2.10;99.90;;;;;;5035289;28;20271;-65
2022/02/20 02:52:55;;;;;;;10.52;2.40;;;2.10;99.90;;;;;;5001357;28;20516;-64
2022/02/20 02:55:22;;;;;;;14.30;2.17;;;2.10;99.90;;;;;;5003277;28;20474;-66
2022/02/20 02:57:50;;;;;;;8.93;2.33;;;2.20;99.90;;;;;;5004474;28;20688;-64
2022/02/20 03:00:17;;;;;;;14.98;3.08;;;2.20;99.90;;;;;;5001544;28;20049;-65
2022/02/20 03:02:44;;;;;;;16.33;2.08;;;2.30;99.90;;;;;;5018612;28;20045;-64
2022/02/20 03:05:12;;;;;;;10.73;1.63;;;2.20;99.90;;;;;;4996418;28;20052;-65
2022/02/20 03:07:43;;;;;;;10.55;1.73;;;2.20;99.90;;;;;;5035077;28;20046;-64
2022/02/20 03:10:10;;;;;;;14.20;2.55;;;2.20;99.90;;;;;;5001456;28;20046;-69
2022/02/20 03:12:37;;;;;;;5.93;1.35;;;2.20;99.90;;;;;;5004740;28;20319;-67
2022/02/20 03:15:05;;;;;;;5.10;1.50;;;2.20;99.90;;;;;;5005887;28;20056;-64
2022/02/20 03:17:33;;;;;;;9.52;1.25;;;2.20;99.90;;;;;;5000805;28;20081;-68
2022/02/20 03:20:01;;;;;;;4.38;1.30;;;2.10;99.90;;;;;;4999753;28;20068;-71
2022/02/20 03:22:29;;;;;;;15.43;1.50;;;2.10;99.90;;;;;;5034795;28;20053;-66
2022/02/20 03:24:56;;;;;;;6.43;1.10;;;2.20;99.90;;;;;;5002737;28;20148;-68
2022/02/20 03:27:24;;;;;;;8.85;1.75;;;2.20;99.90;;;;;;5015803;28;20152;-64
2022/02/20 03:29:54;;;;;;;9.25;1.90;;;2.20;99.90;;;;;;4995568;28;20050;-64
2022/02/20 03:32:21;;;;;;;7.75;1.60;;;2.20;99.90;;;;;;5002698;28;20053;-65
2022/02/20 03:34:49;;;;;;;7.70;1.52;;;2.20;99.90;;;;;;5002288;28;20831;-65
2022/02/20 03:37:16;;;;;;;5.72;1.75;;;2.20;99.90;;;;;;5000663;28;20046;-64
2022/02/20 03:39:43;;;;;;;6.63;2.58;;;2.10;99.90;;;;;;5001651;28;20227;-64
2022/02/20 03:42:11;;;;;;;6.82;1.50;;;2.10;99.90;;;;;;4984566;28;20052;-65
2022/02/20 03:45:02;;;;;;;3.15;1.10;;;2.00;99.90;;;;;;2374296;28;10023485;-65
2022/02/20 03:47:33;;;;;;;;;;;1.80;99.90;;;;;;3618927;28;10001676;-64
2022/02/20 03:50:01;;;;;;;7.10;0.95;;;1.70;99.90;;;;;;5000988;28;20247;-66
2022/02/20 03:52:34;;;;;;;6.20;0.95;;;1.60;99.90;;;;;;5001689;28;20050;-66
2022/02/20 03:55:05;;;;;;;3.20;1.15;;;1.40;99.90;;;;;;4999722;28;20046;-64
2022/02/20 03:57:37;;;;;;;4.03;1.23;;;1.30;99.90;;;;;;5001296;28;20060;-67
2022/02/20 04:00:22;;;;;;;2.10;0.82;;;1.30;99.90;;;;;;5003233;28;20042;-67
2022/02/20 04:03:01;;;;;;;5.00;0.77;;;1.20;99.90;;;;;;5000773;28;20499;-64
2022/02/20 04:05:28;;;;;;;3.63;1.10;;;1.30;99.90;;;;;;5000338;28;20049;-64
2022/02/20 04:07:56;;;;;;;4.10;1.45;;;1.30;99.90;;;;;;4999833;28;20490;-66
2022/02/20 04:10:25;;;;;;;7.97;1.37;;;1.30;99.90;;;;;;5031040;28;20445;-68
2022/02/20 04:12:54;;;;;;;2.45;0.98;;;1.30;99.90;;;;;;5002656;28;20050;-65
2022/02/20 04:15:22;;;;;;;5.88;1.33;;;1.40;99.90;;;;;;5013937;28;20157;-65
2022/02/20 04:17:56;;;;;;;7.60;1.45;;;1.40;99.90;;;;;;5002633;28;20046;-64
2022/02/20 04:20:23;;;;;;;3.70;1.27;;;1.40;99.90;;;;;;4999646;28;20057;-65
2022/02/20 04:22:52;;;;;;;5.47;1.95;;;1.40;99.90;;;;;;5002584;28;20350;-64
2022/02/20 04:25:24;;;;;;;5.05;1.70;;;1.40;99.90;;;;;;5001934;28;20064;-64
2022/02/20 04:27:54;;;;;;;6.82;1.45;;;1.40;99.90;;;;;;5019265;28;20099;-69
2022/02/20 04:30:23;;;;;;;3.88;1.10;;;1.50;99.90;;;;;;5032283;28;20124;-64
2022/02/20 04:32:57;;;;;;;8.27;1.10;;;1.50;99.90;;;;;;5003080;28;20852;-64
2022/02/20 04:35:24;;;;;;;3.67;1.67;;;1.60;99.90;;;;;;5030261;28;20641;-69
2022/02/20 04:37:53;;;;;;;6.50;1.08;;;1.60;99.90;;;;;;5004905;28;20127;-66
2022/02/20 04:40:22;;;;;;;6.15;0.98;;;1.60;99.90;;;;;;5033864;28;20049;-67
2022/02/20 04:42:54;;;;;;;4.72;0.70;;;1.60;99.90;;;;;;5017641;28;20050;-65
2022/02/20 04:45:21;;;;;;;6.65;1.08;;;1.60;99.90;;;;;;4998129;28;20058;-64
2022/02/20 04:47:48;;;;;;;4.63;0.95;;;1.60;99.90;;;;;;5003933;28;20464;-65
2022/02/20 04:50:19;;;;;;;2.67;0.68;;;1.70;99.90;;;;;;5032143;28;20155;-64
2022/02/20 04:52:53;;;;;;;3.25;0.77;;;1.70;99.90;;;;;;5002287;28;20137;-65
2022/02/20 04:55:29;;;;;;;6.82;1.17;;;1.80;99.90;;;;;;4999562;28;20038;-65
2022/02/20 04:57:57;;;;;;;4.88;0.90;;;1.80;99.90;;;;;;5004924;28;20045;-64
2022/02/20 05:00:24;;;;;;;3.50;1.13;;;1.80;99.90;;;;;;5000649;28;20328;-69
2022/02/20 05:03:01;;;;;;;3.60;1.00;;;1.90;99.90;;;;;;4999851;28;20077;-64
2022/02/20 05:05:46;;;;;;;5.32;0.75;;;1.90;99.90;;;;;;5002281;28;20414;-66
2022/02/20 05:08:18;;;;;;;4.65;1.75;;;1.90;99.90;;;;;;5001775;28;20057;-66
2022/02/20 05:10:45;;;;;;;5.03;0.68;;;2.00;99.90;;;;;;4999779;28;20037;-64
2022/02/20 05:13:12;;;;;;;3.40;0.57;;;2.00;99.90;;;;;;5000915;28;20069;-69
2022/02/20 05:15:40;;;;;;;3.35;0.75;;;2.00;99.90;;;;;;5038275;28;20038;-64
2022/02/20 05:18:10;;;;;;;1.63;0.50;;;2.00;99.90;;;;;;5003979;28;20345;-68
2022/02/20 05:20:38;;;;;;;3.63;0.60;;;2.00;99.90;;;;;;5037333;28;20041;-68
2022/02/20 05:23:05;;;;;;;5.05;0.57;;;2.10;99.90;;;;;;5003870;28;20519;-66
2022/02/20 05:25:32;;;;;;;1.55;0.60;;;2.10;99.90;;;;;;5001872;28;20122;-65
2022/02/20 05:27:59;;;;;;;2.05;0.80;;;2.10;99.90;;;;;;5017163;28;20062;-66
2022/02/20 05:30:32;;;;;;;6.68;0.80;;;2.10;99.90;;;;;;5038071;28;20620;-65
2022/02/20 05:33:22;;;;;;;2.17;0.28;;;2.10;99.90;;;;;;5034276;28;20042;-68
2022/02/20 05:35:51;;;;;;;1.98;0.70;;;2.10;99.90;;;;;;5036941;28;20084;-66
2022/02/20 05:38:26;;;;;;;3.15;0.80;;;2.20;99.90;;;;;;5003315;28;20397;-68
2022/02/20 05:40:54;;;;;;;2.45;0.43;;;2.20;99.90;;;;;;5034163;28;20443;-66
2022/02/20 05:43:21;;;;;;;2.15;0.57;;;2.20;99.90;;;;;;4937900;28;20612;-64
2022/02/20 05:45:55;;;;;;;0.82;0.50;;;2.10;99.90;;;;;;1869028;28;10023715;-64
2022/02/20 05:48:28;;;;;;;6.63;1.23;;;2.10;99.90;;;;;;4647633;28;10001232;-64
2022/02/20 05:51:04;;;;;;;4.10;0.60;;;2.20;99.90;;;;;;4986977;28;20070;-64
2022/02/20 05:53:35;;;;;;;0.57;0.25;;;2.10;99.90;;;;;;5016090;28;20054;-66
2022/02/20 05:56:03;;;;;;;2.35;0.40;;;2.10;99.90;;;;;;4985100;28;20046;-65
2022/02/20 05:58:44;;;;;;;1.95;0.32;;;2.10;99.90;;;;;;4983893;28;20240;-66
2022/02/20 06:01:11;;;;;;;1.38;0.30;;;2.10;99.90;;;;;;4984569;28;20050;-65
2022/02/20 06:03:41;;;;;;;1.23;0.30;;;2.10;99.90;;;;;;4985836;28;20128;-66
2022/02/20 06:06:32;;;;;;;2.03;0.32;;;2.10;99.90;;;;;;4986405;28;20609;-64
2022/02/20 06:09:18;;;;;;;0.45;0.30;;;2.10;99.90;;;;;;5010287;28;20057;-66
2022/02/20 06:11:48;;;;;;;;;;;2.10;99.90;;;;;;4985636;28;20108;-64
2022/02/20 06:14:23;;;;;;;5.88;0.30;;;2.10;99.90;;;;;;4984296;28;19988;-67
2022/02/20 06:17:09;;;;;;;1.98;0.50;;;2.10;99.90;;;;;;4977906;28;20552;-68
2022/02/20 06:19:49;;;;;;;0.57;0.30;;;2.10;99.90;;;;;;4984231;28;20501;-64
2022/02/20 06:22:29;;;;;;;;;;;2.10;99.90;;;;;;4983235;28;20472;-69
2022/02/20 06:25:23;;;;;;;1.27;0.50;;;2.10;99.90;;;;;;5001910;28;20008;-65
2022/02/20 06:28:02;;;;;;;0.50;0.30;;;2.10;99.90;;;;;;5002038;28;20541;-64
2022/02/20 06:30:30;;;;;;;0.80;0.30;;;2.10;99.90;;;;;;5036524;28;20049;-70
2022/02/20 06:32:57;;;;;;;2.30;0.20;;;2.10;99.90;;;;;;5035714;28;20050;-66
2022/02/20 06:35:24;;;;;;;0.68;0.68;;;2.20;99.90;;;;;;5001173;28;20046;-66
2022/02/20 06:37:51;;;;;;;2.00;0.32;;;2.20;99.90;;;;;;5016995;28;20045;-65
2022/02/20 06:40:21;;;;;;;1.92;0.43;;;2.20;99.90;;;;;;4991284;28;20054;-65
2022/02/20 06:42:50;;;;;;;1.30;0.25;;;2.20;99.90;;;;;;5008520;28;20061;-64
2022/02/20 06:45:20;;;;;;;2.15;0.57;;;2.20;99.90;;;;;;5014434;28;20412;-65
2022/02/20 06:48:10;;;;;;;3.38;1.50;;;2.20;99.90;;;;;;5006705;28;20523;-70
2022/02/20 06:50:47;;;;;;;1.33;0.40;;;2.20;99.90;;;;;;5035529;28;20060;-64
2022/02/20 06:53:24;;;;;;;1.00;0.30;;;2.20;99.90;;;;;;5001925;28;20042;-65
2022/02/20 06:56:05;;;;;;;4.22;0.75;;;2.20;99.90;;;;;;5003187;28;20057;-67
2022/02/20 06:58:32;;;;;;;0.45;0.43;;;2.20;99.90;;;;;;5003351;28;20431;-67
2022/02/20 07:00:59;;;;;;;2.72;0.32;;;2.10;99.90;;;;;;5005018;28;20388;-69
2022/02/20 07:03:26;;;;;;;2.05;0.20;;;2.20;99.90;;;;;;5002696;28;20057;-65
2022/02/20 07:05:53;;;;;;;1.35;0.47;;;2.20;99.90;;;;;;5005512;28;20373;-65
2022/02/20 07:08:21;;;;;;;1.25;0.30;;;2.20;99.90;;;;;;5004294;28;20575;-64
2022/02/20 07:10:48;;;;;;;2.40;0.35;;;2.20;99.90;;;;;;5003402;28;20066;-67
2022/02/20 07:13:14;;;;;;;3.15;0.40;;;2.30;99.90;;;;;;5002064;28;20664;-64
2022/02/20 07:15:41;;;;;;;4.38;0.57;;;2.20;99.90;;;;;;5004095;28;20159;-64
2022/02/20 07:18:08;;;;;;;1.98;0.43;;;2.30;99.90;;;;;;5002552;28;20054;-69
2022/02/20 07:20:35;;;;;;;2.00;0.35;;;2.20;99.90;;;;;;5003764;28;20454;-69
2022/02/20 07:23:02;;;;;;;1.45;0.40;;;2.20;99.90;;;;;;5002752;28;20082;-66
2022/02/20 07:25:29;;;;;;;0.47;0.32;;;2.20;99.90;;;;;;4999395;28;20128;-66
2022/02/20 07:27:56;;;;;;;0.82;0.45;;;2.20;99.90;;;;;;5003209;28;20042;-65
2022/02/20 07:30:27;;;;;;;3.65;3.28;;;2.30;99.90;;;;;;5003272;28;20096;-68
2022/02/20 07:33:04;;;;;;;0.40;0.28;;;2.20;99.90;;;;;;5003668;28;20046;-65
2022/02/20 07:35:32;;;;;;;2.75;0.40;;;2.20;99.90;;;;;;4997449;28;20057;-66
2022/02/20 07:38:02;;;;;;;1.63;0.40;;;2.20;99.90;;;;;;5004320;28;20050;-65
2022/02/20 07:40:29;;;;;;;1.75;0.20;;;2.30;99.90;;;;;;5002946;28;20046;-65
2022/02/20 07:42:57;;;;;;;1.65;0.20;;;2.30;99.90;;;;;;5005757;28;20104;-66
2022/02/20 07:45:25;;;;;;;0.35;0.13;;;2.20;99.90;;;;;;4956154;28;23328;-65
2022/02/20 07:47:59;;;;;;;0.85;0.20;;;2.30;99.90;;;;;;3612587;28;10024127;-67
2022/02/20 07:50:29;;;;;;;1.88;0.32;;;2.30;99.90;;;;;;2058354;28;10002015;-65
2022/02/20 07:52:58;;;;;;;0.00;0.00;;;2.30;99.90;;;;;;4983571;28;20073;-67
2022/02/20 07:55:27;;;;;;;0.65;0.55;;;2.20;99.90;;;;;;4982104;28;20136;-65
2022/02/20 07:57:54;;;;;;;0.20;0.20;;;2.20;99.90;;;;;;4983430;28;20164;-65
2022/02/20 08:00:30;;;;;;;0.32;0.20;;;2.20;99.90;;;;;;4984552;28;20078;-69
2022/02/20 08:02:59;;;;;;;2.15;0.20;;;2.20;99.90;;;;;;4981703;28;20125;-66
2022/02/20 08:05:27;;;;;;;1.08;0.43;;;2.10;99.90;;;;;;4983035;28;20212;-65
2022/02/20 08:07:54;;;;;;;0.30;0.10;;;2.20;99.90;;;;;;4980293;28;21519;-65
2022/02/20 08:10:21;;;;;;;0.90;0.15;;;2.10;99.90;;;;;;4984194;28;20426;-64
2022/02/20 08:12:48;;;;;;;0.75;0.20;;;2.10;99.90;;;;;;4982496;28;20377;-69
2022/02/20 08:15:15;;;;;;;1.27;0.10;;;2.10;99.90;;;;;;4981969;28;20054;-67
2022/02/20 08:17:43;;;;;;;3.42;0.50;;;2.00;99.90;;;;;;4983265;28;20156;-72
2022/02/20 08:20:12;;;;;;;0.52;0.30;;;1.90;99.90;;;;;;4982482;28;20472;-74
2022/02/20 08:22:40;;;;;;;2.55;1.20;;;1.80;99.90;;;;;;4980833;28;20108;-67
2022/02/20 08:25:09;;;;;;;1.20;1.10;;;1.70;99.90;;;;;;4981245;28;20435;-65
2022/02/20 08:27:37;;;;;;;1.75;1.13;;;1.70;99.90;;;;;;4982799;28;20046;-67
2022/02/20 08:30:08;;;;;;;1.40;0.75;;;1.80;99.90;;;;;;4975608;28;20050;-65
2022/02/20 08:32:35;;;;;;;0.93;0.32;;;1.80;99.90;;;;;;4981501;28;20112;-64
2022/02/20 08:35:08;;;;;;;2.42;0.40;;;1.80;99.90;;;;;;4983125;28;20100;-69
2022/02/20 08:37:43;;;;;;;0.28;0.20;;;1.80;99.90;;;;;;5000185;28;20392;-70
2022/02/20 08:40:12;;;;;;;0.45;0.30;;;1.90;99.90;;;;;;4997419;28;20077;-68
2022/02/20 08:42:40;;;;;;;1.15;0.55;;;2.00;99.90;;;;;;5002194;28;20069;-68
2022/02/20 08:45:07;;;;;;;0.30;0.22;;;2.00;99.90;;;;;;5005539;28;20046;-66
2022/02/20 08:47:34;;;;;;;0.95;0.20;;;2.00;99.90;;;;;;4999559;28;20408;-70
2022/02/20 08:50:02;;;;;;;0.75;0.20;;;2.10;99.90;;;;;;5002198;28;20061;-65
2022/02/20 08:52:29;;;;;;;4.60;0.60;;;2.20;99.90;;;;;;5001120;28;20058;-66
2022/02/20 08:54:56;;;;;;;2.72;1.42;;;2.20;99.90;;;;;;5004528;28;20092;-65
2022/02/20 08:57:24;;;;;;;2.88;1.95;;;2.30;99.90;;;;;;4999858;28;20086;-67
2022/02/20 08:59:51;;;;;;;2.03;1.77;;;2.30;99.90;;;;;;5003358;28;20410;-65
2022/02/20 09:02:18;;;;;;;0.85;0.47;;;2.30;99.90;;;;;;5001851;28;20100;-68
2022/02/20 09:04:46;;;;;;;0.75;0.40;;;2.30;99.90;;;;;;5005022;28;20129;-66
2022/02/20 09:07:13;;;;;;;0.47;0.20;;;2.30;99.90;;;;;;5000269;28;20060;-65
2022/02/20 09:09:40;;;;;;;2.67;1.20;;;2.30;99.90;;;;;;5001614;28;20151;-68
2022/02/20 09:12:07;;;;;;;2.38;1.15;;;2.30;99.90;;;;;;5002638;28;20607;-67
2022/02/20 09:14:35;;;;;;;2.15;1.23;;;2.40;99.90;;;;;;5000569;28;20086;-65
2022/02/20 09:17:02;;;;;;;1.15;0.20;;;2.40;99.90;;;;;;5002098;28;20054;-72
2022/02/20 09:19:30;;;;;;;0.50;0.13;;;2.40;99.90;;;;;;4999907;28;20073;-72
2022/02/20 09:21:56;;;;;;;0.28;0.20;;;2.40;99.90;;;;;;5002051;28;20118;-68
2022/02/20 09:24:23;;;;;;;0.95;0.30;;;2.40;99.90;;;;;;5002334;28;20053;-71
2022/02/20 09:26:50;;;;;;;0.30;0.30;;;2.40;99.90;;;;;;5001757;28;20169;-66
2022/02/20 09:29:18;;;;;;;0.32;0.30;;;2.40;99.90;;;;;;4998644;28;20572;-65
2022/02/20 09:31:45;;;;;;;0.10;0.10;;;2.40;99.90;;;;;;5002225;28;20527;-72
2022/02/20 09:34:13;;;;;;;0.80;0.20;;;2.30;99.90;;;;;;5002983;28;20112;-66
2022/02/20 09:36:40;;;;;;;4.82;0.65;;;2.30;99.90;;;;;;5001943;28;20050;-68
2022/02/20 09:39:07;;;;;;;0.50;0.25;;;2.30;99.90;;;;;;5002591;28;20472;-72
2022/02/20 09:41:37;;;;;;;0.57;0.35;;;2.30;99.90;;;;;;5001836;28;20054;-68
2022/02/20 09:44:05;;;;;;;0.20;0.17;;;2.30;99.90;;;;;;5002483;28;20127;-68
2022/02/20 09:46:32;;;;;;;1.65;0.40;;;2.30;99.90;;;;;;4916527;28;21839;-66
2022/02/20 09:48:59;;;;;;;0.80;0.20;;;2.20;99.90;;;;;;1002230;28;10001934;-68
2022/02/20 09:51:28;;;;;;;0.20;0.20;;;2.20;99.90;;;;;;4981825;28;20562;-65
2022/02/20 09:53:57;;;;;;;0.45;0.30;;;2.20;99.90;;;;;;4982021;28;20034;-65
2022/02/20 09:56:24;;;;;;;0.30;0.30;;;2.20;99.90;;;;;;4984180;28;20058;-67
2022/02/20 09:58:52;;;;;;;2.40;0.43;;;2.20;99.90;;;;;;4984756;28;20246;-69
2022/02/20 10:01:19;;;;;;;0.43;0.10;;;2.20;99.90;;;;;;4984745;28;20161;-67
2022/02/20 10:03:48;;;;;;;0.50;0.20;;;2.30;99.90;;;;;;4984209;28;20054;-65
2022/02/20 10:06:21;;;;;;;0.65;0.30;;;2.30;99.90;;;;;;4986693;28;20161;-65
2022/02/20 10:08:57;;;;;;;1.48;0.10;;;2.30;99.90;;;;;;4983831;28;20483;-67
2022/02/20 10:11:29;;;;;;;0.57;0.40;;;2.30;99.90;;;;;;4985765;28;20128;-67
2022/02/20 10:14:13;;;;;;;1.42;0.40;;;2.20;99.90;;;;;;4986131;28;20113;-68
2022/02/20 10:16:40;;;;;;;2.85;0.43;;;2.20;99.90;;;;;;4985662;28;20054;-66
2022/02/20 10:19:26;;;;;;;0.40;0.10;;;2.30;99.90;;;;;;4984441;28;20053;-67
2022/02/20 10:22:11;;;;;;;0.40;0.38;;;2.50;99.90;;;;;;4984702;28;20065;-70
2022/02/20 10:25:12;;;;;;;0.68;0.50;;;2.60;99.90;;;;;;4987136;28;20061;-65
2022/02/20 10:28:07;;;;;;;0.63;0.40;;;2.70;99.90;;;;;;4987179;28;20054;-65
2022/02/20 10:30:43;;;;;;;1.00;0.40;;;2.60;99.90;;;;;;4981341;28;20073;-67
2022/02/20 10:33:26;;;;;;;0.13;0.10;;;2.50;99.90;;;;;;4985433;28;20109;-67
2022/02/20 10:35:54;;;;;;;2.05;0.30;;;2.40;99.90;;;;;;4983631;28;20066;-68
2022/02/20 10:38:25;;;;;;;0.20;0.20;;;2.50;99.90;;;;;;4985914;28;20065;-65
2022/02/20 10:40:55;;;;;;;4.18;0.40;;;2.60;99.90;;;;;;4985746;28;20058;-67
2022/02/20 10:43:28;;;;;;;1.42;0.30;;;2.70;99.90;;;;;;4984845;28;20383;-65
2022/02/20 10:46:16;;;;;;;1.50;0.20;;;2.70;99.90;;;;;;4984369;28;20113;-65
2022/02/20 10:48:45;;;;;;;2.72;0.57;;;2.70;99.90;;;;;;5016071;28;20094;-67
2022/02/20 10:51:14;;;;;;;0.70;0.20;;;2.60;99.90;;;;;;4984732;28;20082;-65
2022/02/20 10:53:41;;;;;;;0.55;0.30;;;2.50;99.90;;;;;;4985356;28;20137;-66
2022/02/20 10:56:08;;;;;;;0.63;0.20;;;2.50;99.90;;;;;;4986052;28;20516;-69
2022/02/20 10:58:43;;;;;;;0.40;0.40;;;2.50;99.90;;;;;;4984341;28;20077;-66
2022/02/20 11:01:24;;;;;;;1.48;0.45;;;2.50;99.90;;;;;;4983486;28;20085;-69
2022/02/20 11:04:01;;;;;;;1.10;0.50;;;2.50;99.90;;;;;;4983288;28;20054;-65
2022/02/20 11:06:31;;;;;;;1.58;0.30;;;2.50;99.90;;;;;;4985138;28;20074;-65
2022/02/20 11:08:58;;;;;;;2.20;0.52;;;2.50;99.90;;;;;;4985345;28;20070;-65
2022/02/20 11:11:37;;;;;;;3.42;0.28;;;2.50;99.90;;;;;;4982819;28;20066;-66
2022/02/20 11:14:09;;;;;;;0.40;0.40;;;2.60;99.90;;;;;;4994520;28;20459;-68
2022/02/20 11:16:44;;;;;;;2.35;0.57;;;2.60;99.90;;;;;;5002937;28;20046;-68
2022/02/20 11:19:14;;;;;;;0.50;0.40;;;2.60;99.90;;;;;;5002252;28;20492;-68
2022/02/20 11:21:45;;;;;;;6.07;0.82;;;2.50;99.90;;;;;;5004329;28;20060;-65
2022/02/20 11:24:13;;;;;;;1.20;0.47;;;2.60;99.90;;;;;;5006062;28;20049;-69
2022/02/20 11:26:43;;;;;;;0.73;0.55;;;2.50;99.90;;;;;;5001633;28;20125;-67
2022/02/20 11:29:10;;;;;;;;;;;2.50;99.90;;;;;;4999781;28;20194;-65
2022/02/20 11:31:39;;;;;;;4.47;0.57;;;2.60;99.90;;;;;;5003167;28;19939;-70
2022/02/20 11:34:08;;;;;;;6.32;0.77;;;2.70;99.90;;;;;;5004025;28;20054;-68
2022/02/20 11:36:35;;;;;;;1.98;0.60;;;2.70;99.90;;;;;;5004494;28;20122;-66
2022/02/20 11:39:06;;;;;;;1.05;0.40;;;2.60;99.90;;;;;;5003345;28;20192;-65
2022/02/20 11:41:33;;;;;;;1.13;0.45;;;2.70;99.90;;;;;;5001579;28;20053;-64
2022/02/20 11:44:17;;;;;;;4.70;0.60;;;2.70;99.90;;;;;;4289265;28;10001275;-71
2022/02/20 11:46:53;;;;;;;3.88;0.50;;;2.70;99.90;;;;;;1713475;28;10001924;-68
2022/02/20 11:49:28;;;;;;;0.98;0.40;;;2.70;99.90;;;;;;4977352;28;20145;-69
2022/02/20 11:52:02;;;;;;;2.53;0.35;;;2.60;99.90;;;;;;4984649;28;20076;-69
2022/02/20 11:54:35;;;;;;;1.35;0.52;;;2.60;99.90;;;;;;4983190;28;20769;-66
2022/02/20 11:57:19;;;;;;;1.05;0.40;;;2.60;99.90;;;;;;4985460;28;20138;-65
2022/02/20 12:00:05;;;;;;;3.20;0.60;;;2.60;99.90;;;;;;5001429;28;20152;-65
2022/02/20 12:03:03;;;;;;;0.93;0.32;;;2.60;99.90;;;;;;4990951;28;20604;-66
2022/02/20 12:05:36;;;;;;;1.00;0.50;;;2.70;99.90;;;;;;5000672;28;20484;-65
2022/02/20 12:08:08;;;;;;;4.55;0.60;;;2.70;99.90;;;;;;5000259;28;20093;-65
2022/02/20 12:10:39;;;;;;;1.70;0.63;;;2.70;99.90;;;;;;5004188;28;20108;-67
2022/02/20 12:13:06;;;;;;;1.38;0.47;;;2.80;99.90;;;;;;4986409;28;20878;-67
2022/02/20 12:15:37;;;;;;;0.63;0.38;;;2.80;99.90;;;;;;4998916;28;20088;-64
2022/02/20 12:18:10;;;;;;;0.40;0.28;;;2.80;99.90;;;;;;4982482;28;20058;-67
2022/02/20 12:20:47;;;;;;;1.45;0.30;;;2.90;99.90;;;;;;4984394;28;20046;-66
2022/02/20 12:23:36;;;;;;;2.38;0.47;;;2.80;99.90;;;;;;4980331;28;20046;-66
2022/02/20 12:26:27;;;;;;;16.05;2.80;;;2.90;99.90;;;;;;4981667;28;20105;-66
2022/02/20 12:29:10;;;;;;;11.93;1.52;;;2.90;99.90;;;;;;4985121;28;20139;-65
2022/02/20 12:32:15;;;;;;;3.95;0.30;;;2.90;99.90;;;;;;4981771;28;20432;-66
2022/02/20 12:34:49;;;;;;;3.20;0.77;;;2.90;99.90;;;;;;4983915;28;20145;-67
2022/02/20 12:37:22;;;;;;;4.43;0.77;;;2.80;99.90;;;;;;4980954;28;20146;-66
2022/02/20 12:40:31;;;;;;;2.95;0.60;;;2.80;99.90;;;;;;4984999;28;20154;-65
2022/02/20 12:43:03;;;;;;;1.48;0.38;;;2.80;99.90;;;;;;4984529;28;20579;-68
2022/02/20 12:45:35;;;;;;;20.27;0.85;;;2.80;99.90;;;;;;4980686;28;20050;-65
2022/02/20 12:48:05;;;;;;;3.15;0.60;;;2.70;99.90;;;;;;4984456;28;20124;-66
2022/02/20 12:50:35;;;;;;;6.65;1.00;;;2.70;99.90;;;;;;4983377;28;20078;-66
2022/02/20 12:53:03;;;;;;;3.40;0.70;;;2.80;99.90;;;;;;4983163;28;20053;-70
2022/02/20 12:55:32;;;;;;;2.45;0.70;;;2.80;99.90;;;;;;4981707;28;20073;-65
2022/02/20 12:58:01;;;;;;;0.70;0.28;;;2.90;99.90;;;;;;4984365;28;20104;-66
2022/02/20 13:00:56;;;;;;;2.42;1.23;;;2.90;99.90;;;;;;4982055;28;20124;-66
2022/02/20 13:03:25;;;;;;;3.63;0.90;;;2.90;99.90;;;;;;4978245;28;20258;-66
2022/02/20 13:05:53;;;;;;;4.15;1.00;;;2.90;99.90;;;;;;5003048;28;20144;-65
2022/02/20 13:08:26;;;;;;;5.53;0.50;;;2.90;99.90;;;;;;4998629;28;20073;-70
2022/02/20 13:10:53;;;;;;;3.00;0.95;;;2.90;99.90;;;;;;5003011;28;20131;-65
2022/02/20 13:13:23;;;;;;;2.13;0.40;;;2.90;99.90;;;;;;4985063;28;20146;-68
2022/02/20 13:15:58;;;;;;;2.33;0.70;;;2.90;99.90;;;;;;5002012;28;20052;-65
2022/02/20 13:18:28;;;;;;;2.63;0.75;;;2.90;99.90;;;;;;5001315;28;20049;-71